createdAt,value
2018-05-09T00:01:12.213Z,4.15
2018-05-09T00:03:38.394Z,4.28
2018-05-09T00:06:04.575Z,8.38
2018-05-09T00:08:30.764Z,8.70
2018-05-09T00:10:56.935Z,4.68
2018-05-09T00:13:23.113Z,7.55
2018-05-09T00:15:49.294Z,5.65
2018-05-09T00:18:15.463Z,2.85
2018-05-09T00:20:41.660Z,5.62
2018-05-09T00:23:07.830Z,5.05
2018-05-09T00:25:34.022Z,6.10
2018-05-09T00:28:01.286Z,6.80
2018-05-09T00:30:27.452Z,12.52
2018-05-09T00:32:53.642Z,9.40
2018-05-09T00:35:19.795Z,10.73
2018-05-09T00:37:46.074Z,7.80
2018-05-09T00:40:12.276Z,12.00
2018-05-09T00:42:38.457Z,4.28
2018-05-09T00:45:04.646Z,6.93
2018-05-09T00:47:30.841Z,6.60
2018-05-09T00:49:57.022Z,5.22
2018-05-09T00:52:23.175Z,3.20
2018-05-09T00:54:49.331Z,6.50
2018-05-09T00:57:16.614Z,9.70
2018-05-09T00:59:42.794Z,3.15
2018-05-09T01:02:09.000Z,3.33
2018-05-09T01:04:35.184Z,5.00
2018-05-09T01:07:01.374Z,3.45
2018-05-09T01:09:29.332Z,9.07
2018-05-09T01:11:55.917Z,4.93
2018-05-09T01:14:22.466Z,6.40
2018-05-09T01:16:48.944Z,7.85
2018-05-09T01:19:15.407Z,3.20
2018-05-09T01:21:41.895Z,13.13
2018-05-09T01:24:09.817Z,12.32
2018-05-09T01:26:36.030Z,6.30
2018-05-09T01:29:02.271Z,5.07
2018-05-09T01:31:28.426Z,9.63
2018-05-09T01:33:54.597Z,5.85
2018-05-09T01:36:20.794Z,7.35
2018-05-09T01:38:46.974Z,3.70
2018-05-09T01:41:13.138Z,6.05
2018-05-09T01:43:39.327Z,7.78
2018-05-09T01:46:05.527Z,4.75
2018-05-09T01:48:32.862Z,4.80
2018-05-09T01:50:59.039Z,3.60
2018-05-09T01:53:26.319Z,8.93
2018-05-09T01:55:52.506Z,4.90
2018-05-09T01:58:18.665Z,3.45
2018-05-09T02:00:44.847Z,3.47
2018-05-09T02:03:11.011Z,4.45
2018-05-09T02:05:37.195Z,3.35
2018-05-09T02:08:03.401Z,6.53
2018-05-09T02:10:29.583Z,5.68
2018-05-09T02:12:56.892Z,3.30
2018-05-09T02:15:23.095Z,2.83
2018-05-09T02:17:50.366Z,3.60
2018-05-09T02:20:16.561Z,5.25
2018-05-09T02:22:42.722Z,4.60
2018-05-09T02:25:08.913Z,6.35
2018-05-09T02:27:35.077Z,4.90
2018-05-09T02:30:01.246Z,9.98
2018-05-09T02:32:27.419Z,5.18
2018-05-09T02:34:53.590Z,9.95
2018-05-09T02:37:19.784Z,4.22
2018-05-09T02:39:47.721Z,7.10
2018-05-09T02:42:13.920Z,3.30
2018-05-09T02:44:40.122Z,3.78
2018-05-09T02:47:06.297Z,10.23
2018-05-09T02:49:33.591Z,5.35
2018-05-09T02:51:59.778Z,3.65
2018-05-09T02:54:25.942Z,10.07
2018-05-09T02:56:53.230Z,4.45
2018-05-09T02:59:19.394Z,3.30
2018-05-09T03:01:45.602Z,5.05
2018-05-09T03:04:11.782Z,4.80
2018-05-09T03:06:37.938Z,6.18
2018-05-09T03:09:05.160Z,3.53
2018-05-09T03:11:31.335Z,5.22
2018-05-09T03:13:57.510Z,7.37
2018-05-09T03:16:24.808Z,6.07
2018-05-09T03:18:50.971Z,9.95
2018-05-09T03:21:17.156Z,7.97
2018-05-09T03:23:44.443Z,3.80
2018-05-09T03:26:10.635Z,3.60
2018-05-09T03:28:36.810Z,3.72
2018-05-09T03:31:04.087Z,5.90
2018-05-09T03:33:30.270Z,6.20
2018-05-09T03:35:56.559Z,4.97
2018-05-09T03:38:23.847Z,7.22
2018-05-09T03:40:50.010Z,8.88
2018-05-09T03:43:16.182Z,4.80
2018-05-09T03:45:42.355Z,5.10
2018-05-09T03:48:08.534Z,5.93
2018-05-09T03:50:34.756Z,5.25
2018-05-09T03:53:00.944Z,5.25
2018-05-09T03:55:27.114Z,7.15
2018-05-09T03:57:53.325Z,3.47
2018-05-09T04:00:19.494Z,5.68
2018-05-09T04:02:59.522Z,7.72
2018-05-09T04:05:37.923Z,5.82
2018-05-09T04:08:16.495Z,10.18
2018-05-09T04:10:44.702Z,9.35
2018-05-09T04:13:12.034Z,7.15
2018-05-09T04:15:38.190Z,7.55
2018-05-09T04:18:05.350Z,4.82
2018-05-09T04:20:31.546Z,5.30
2018-05-09T04:22:57.720Z,11.07
2018-05-09T04:25:23.897Z,4.40
2018-05-09T04:27:51.177Z,3.10
2018-05-09T04:30:17.398Z,4.87
2018-05-09T04:32:44.743Z,4.62
2018-05-09T04:35:10.914Z,6.78
2018-05-09T04:37:38.230Z,11.50
2018-05-09T04:40:04.414Z,10.10
2018-05-09T04:42:31.707Z,10.52
2018-05-09T04:44:57.948Z,4.22
2018-05-09T04:47:24.118Z,8.70
2018-05-09T04:49:50.328Z,11.15
2018-05-09T04:52:16.539Z,8.23
2018-05-09T04:54:43.824Z,7.12
2018-05-09T04:57:10.018Z,9.77
2018-05-09T04:59:36.190Z,4.05
2018-05-09T05:02:04.186Z,5.68
2018-05-09T05:04:30.703Z,5.62
2018-05-09T05:06:56.910Z,7.07
2018-05-09T05:09:23.090Z,7.70
2018-05-09T05:11:50.815Z,7.80
2018-05-09T05:14:17.010Z,14.40
2018-05-09T05:16:44.681Z,3.78
2018-05-09T05:19:10.939Z,4.18
2018-05-09T05:21:38.259Z,9.52
2018-05-09T05:24:04.435Z,6.62
2018-05-09T05:26:31.739Z,4.18
2018-05-09T05:28:57.931Z,5.10
2018-05-09T05:31:24.191Z,3.67
2018-05-09T05:33:52.093Z,7.60
2018-05-09T05:36:19.038Z,6.32
2018-05-09T05:38:45.599Z,6.53
2018-05-09T05:41:11.797Z,3.17
2018-05-09T05:43:38.082Z,8.48
2018-05-09T05:46:06.066Z,13.30
2018-05-09T05:48:32.474Z,8.65
2018-05-09T05:50:59.072Z,7.20
2018-05-09T05:53:25.254Z,7.50
2018-05-09T05:55:51.565Z,8.23
2018-05-09T05:58:17.908Z,9.55
2018-05-09T06:00:44.327Z,4.50
2018-05-09T06:03:10.612Z,6.32
2018-05-09T06:05:39.435Z,8.52
2018-05-09T06:08:05.628Z,19.42
2018-05-09T06:10:32.555Z,16.00
2018-05-09T06:12:58.824Z,26.83
2018-05-09T06:15:25.589Z,10.85
2018-05-09T06:17:51.842Z,27.17
2018-05-09T06:20:18.216Z,17.67
2018-05-09T06:22:45.532Z,9.55
2018-05-09T06:25:11.730Z,6.35
2018-05-09T06:27:37.967Z,5.32
2018-05-09T06:30:04.199Z,9.95
2018-05-09T06:32:30.652Z,5.25
2018-05-09T06:34:57.013Z,6.65
2018-05-09T06:37:24.534Z,3.42
2018-05-09T06:39:50.844Z,7.47
2018-05-09T06:42:18.211Z,7.93
2018-05-09T06:44:45.503Z,3.97
2018-05-09T06:47:11.687Z,10.98
2018-05-09T06:49:37.890Z,9.27
2018-05-09T06:52:04.083Z,7.62
2018-05-09T06:54:30.269Z,10.38
2018-05-09T06:56:56.480Z,6.15
2018-05-09T06:59:23.843Z,2.92
2018-05-09T07:01:50.003Z,8.30
2018-05-09T07:04:18.003Z,4.25
2018-05-09T07:06:44.609Z,5.45
2018-05-09T07:09:10.508Z,6.85
2018-05-09T07:11:36.711Z,19.37
2018-05-09T07:14:04.001Z,8.75
2018-05-09T07:16:30.250Z,7.75
2018-05-09T07:18:56.440Z,7.62
2018-05-09T07:21:22.727Z,4.53
2018-05-09T07:23:48.938Z,6.03
2018-05-09T07:26:16.518Z,8.93
2018-05-09T07:28:42.737Z,4.03
2018-05-09T07:31:09.174Z,6.07
2018-05-09T07:33:35.367Z,5.57
2018-05-09T07:36:01.552Z,3.83
2018-05-09T07:38:27.731Z,6.95
2018-05-09T07:40:53.913Z,4.32
2018-05-09T07:43:20.097Z,3.00
2018-05-09T07:45:47.400Z,6.32
2018-05-09T07:48:13.582Z,5.53
2018-05-09T07:50:39.762Z,7.85
2018-05-09T07:53:05.988Z,3.40
2018-05-09T07:55:32.198Z,4.43
2018-05-09T07:57:58.378Z,8.57
2018-05-09T08:00:24.550Z,7.57
2018-05-09T08:02:50.714Z,3.87
2018-05-09T08:05:16.903Z,5.75
2018-05-09T08:07:43.094Z,6.78
2018-05-09T08:10:09.283Z,6.45
2018-05-09T08:12:35.434Z,5.43
2018-05-09T08:15:01.610Z,4.65
2018-05-09T08:17:27.892Z,5.62
2018-05-09T08:19:55.150Z,5.80
2018-05-09T08:22:22.546Z,2.80
2018-05-09T08:24:48.705Z,6.97
2018-05-09T08:27:14.866Z,6.87
2018-05-09T08:29:41.059Z,7.62
2018-05-09T08:32:07.269Z,10.20
2018-05-09T08:34:33.470Z,5.55
2018-05-09T08:36:59.626Z,5.72
2018-05-09T08:39:26.053Z,2.70
2018-05-09T08:41:52.275Z,5.97
2018-05-09T08:44:18.451Z,6.75
2018-05-09T08:46:44.635Z,3.00
2018-05-09T08:49:12.075Z,7.30
2018-05-09T08:51:38.288Z,8.25
2018-05-09T08:54:04.518Z,5.22
2018-05-09T08:56:30.682Z,5.32
2018-05-09T08:58:56.872Z,6.93
2018-05-09T09:01:23.848Z,3.12
2018-05-09T09:03:50.006Z,5.05
2018-05-09T09:06:16.203Z,4.97
2018-05-09T09:08:43.490Z,3.28
2018-05-09T09:11:09.676Z,3.65
2018-05-09T09:13:35.853Z,5.57
2018-05-09T09:16:03.170Z,8.23
2018-05-09T09:18:29.385Z,4.85
2018-05-09T09:20:55.744Z,4.47
2018-05-09T09:23:21.863Z,5.75
2018-05-09T09:25:48.033Z,12.55
2018-05-09T09:28:14.203Z,8.73
2018-05-09T09:30:40.390Z,5.93
2018-05-09T09:33:07.122Z,9.70
2018-05-09T09:35:33.426Z,6.60
2018-05-09T09:37:59.651Z,3.92
2018-05-09T09:40:26.026Z,7.70
2018-05-09T09:42:52.226Z,4.35
2018-05-09T09:45:18.446Z,6.30
2018-05-09T09:47:44.639Z,6.30
2018-05-09T09:50:10.809Z,5.18
2018-05-09T09:52:38.086Z,9.68
2018-05-09T09:55:05.395Z,3.03
2018-05-09T09:57:31.596Z,9.80
2018-05-09T09:59:58.058Z,3.95
2018-05-09T10:02:24.389Z,5.30
2018-05-09T10:04:50.734Z,4.47
2018-05-09T10:07:16.919Z,3.25
2018-05-09T10:09:43.268Z,3.55
2018-05-09T10:12:09.644Z,3.65
2018-05-09T10:14:36.039Z,3.75
2018-05-09T10:17:02.409Z,6.87
2018-05-09T10:19:29.527Z,4.97
2018-05-09T10:21:55.953Z,5.82
2018-05-09T10:24:22.381Z,6.35
2018-05-09T10:26:49.346Z,8.80
2018-05-09T10:29:16.298Z,6.18
2018-05-09T10:31:42.634Z,5.28
2018-05-09T10:34:09.678Z,4.30
2018-05-09T10:36:36.023Z,6.60
2018-05-09T10:39:02.523Z,3.30
2018-05-09T10:41:28.827Z,4.00
2018-05-09T10:43:55.002Z,2.80
2018-05-09T10:46:21.918Z,8.30
2018-05-09T10:48:48.245Z,6.60
2018-05-09T10:51:14.619Z,5.10
2018-05-09T10:53:40.916Z,6.60
2018-05-09T10:56:07.097Z,3.78
2018-05-09T10:58:33.266Z,4.43
2018-05-09T11:01:00.326Z,6.53
2018-05-09T11:03:26.617Z,10.35
2018-05-09T11:05:52.842Z,10.45
2018-05-09T11:08:19.015Z,5.43
2018-05-09T11:10:45.174Z,8.48
2018-05-09T11:13:11.371Z,5.40
2018-05-09T11:15:37.712Z,4.57
2018-05-09T11:18:04.302Z,6.82
2018-05-09T11:20:31.902Z,53.58
2018-05-09T11:22:58.158Z,74.47
2018-05-09T11:25:24.492Z,8.10
2018-05-09T11:27:51.769Z,12.30
2018-05-09T11:30:17.939Z,7.07
2018-05-09T11:32:44.087Z,5.25
2018-05-09T11:35:10.262Z,7.40
2018-05-09T11:37:37.584Z,7.97
2018-05-09T11:40:03.749Z,91.28
2018-05-09T11:42:29.938Z,9.60
2018-05-09T11:44:56.403Z,6.43
2018-05-09T11:47:22.550Z,6.72
2018-05-09T11:49:48.719Z,4.62
2018-05-09T11:52:14.986Z,3.20
2018-05-09T11:54:41.949Z,11.77
2018-05-09T11:57:08.855Z,6.07
2018-05-09T11:59:35.039Z,6.07
2018-05-09T12:02:02.056Z,3.40
2018-05-09T12:04:28.271Z,7.22
2018-05-09T12:06:54.470Z,7.68
2018-05-09T12:09:20.625Z,6.85
2018-05-09T12:11:47.538Z,6.30
2018-05-09T12:14:13.737Z,11.55
2018-05-09T12:16:39.902Z,9.27
2018-05-09T12:19:06.102Z,5.32
2018-05-09T12:21:33.004Z,5.15
2018-05-09T12:23:59.243Z,5.18
2018-05-09T12:26:25.445Z,9.35
2018-05-09T12:28:52.351Z,4.70
2018-05-09T12:31:18.547Z,3.90
2018-05-09T12:33:44.738Z,7.55
2018-05-09T12:36:10.904Z,3.72
2018-05-09T12:38:37.116Z,5.57
2018-05-09T12:41:03.340Z,5.50
2018-05-09T12:43:29.570Z,3.05
2018-05-09T12:45:55.736Z,7.28
2018-05-09T12:48:21.928Z,3.12
2018-05-09T12:50:48.968Z,7.70
2018-05-09T12:53:15.889Z,7.97
2018-05-09T12:55:42.087Z,3.12
2018-05-09T12:58:09.033Z,3.50
2018-05-09T13:00:36.337Z,8.43
2018-05-09T13:03:02.652Z,7.85
2018-05-09T13:05:29.584Z,4.93
2018-05-09T13:07:55.786Z,5.00
2018-05-09T13:10:21.952Z,6.80
2018-05-09T13:12:48.126Z,4.20
2018-05-09T13:15:15.066Z,3.28
2018-05-09T13:17:41.331Z,2.65
2018-05-09T13:20:08.278Z,8.70
2018-05-09T13:22:34.436Z,4.20
2018-05-09T13:25:00.606Z,4.50
2018-05-09T13:27:26.951Z,7.53
2018-05-09T13:29:53.193Z,6.78
2018-05-09T13:32:19.460Z,4.43
2018-05-09T13:34:45.899Z,3.95
2018-05-09T13:37:13.104Z,6.25
2018-05-09T13:42:13.277Z,5.95
2018-05-09T13:44:39.565Z,8.57
2018-05-09T13:47:05.738Z,9.50
2018-05-09T13:49:31.942Z,12.82
2018-05-09T13:51:58.265Z,9.52
2018-05-09T13:54:24.430Z,9.10
2018-05-09T13:56:50.633Z,14.23
2018-05-09T13:59:17.047Z,7.05
2018-05-09T14:01:43.222Z,8.75
2018-05-09T14:04:09.423Z,8.40
2018-05-09T14:06:35.686Z,5.80
2018-05-09T14:09:01.989Z,6.50
2018-05-09T14:11:28.167Z,13.20
2018-05-09T14:13:55.090Z,10.77
2018-05-09T14:16:21.333Z,6.15
2018-05-09T14:18:47.530Z,5.00
2018-05-09T14:21:13.728Z,4.95
2018-05-09T14:23:39.887Z,4.18
2018-05-09T14:26:06.067Z,7.93
2018-05-09T14:28:32.322Z,7.28
2018-05-09T14:30:58.496Z,8.68
2018-05-09T14:33:24.679Z,3.78
2018-05-09T14:35:50.845Z,4.78
2018-05-09T14:38:16.989Z,4.15
2018-05-09T14:40:43.196Z,2.60
2018-05-09T14:43:09.355Z,4.10
2018-05-09T14:45:35.534Z,3.90
2018-05-09T14:48:01.747Z,4.60
2018-05-09T14:50:27.920Z,6.97
2018-05-09T14:52:54.137Z,5.68
2018-05-09T14:55:20.322Z,6.35
2018-05-09T14:57:47.258Z,7.15
2018-05-09T15:00:13.583Z,11.93
2018-05-09T15:02:40.424Z,7.90
2018-05-09T15:05:06.624Z,4.95
2018-05-09T15:07:33.565Z,8.70
2018-05-09T15:09:59.719Z,14.05
2018-05-09T15:12:27.220Z,6.12
2018-05-09T15:14:53.636Z,3.17
2018-05-09T15:17:19.982Z,6.78
2018-05-09T15:19:46.275Z,12.27
2018-05-09T15:22:19.363Z,6.55
2018-05-09T15:24:46.381Z,7.55
2018-05-09T15:27:13.875Z,4.97
2018-05-09T15:29:40.059Z,5.18
2018-05-09T15:32:06.530Z,3.72
2018-05-09T15:34:32.713Z,6.50
2018-05-09T15:36:58.890Z,8.25
2018-05-09T15:39:25.050Z,4.25
2018-05-09T15:41:51.210Z,8.90
2018-05-09T15:44:17.398Z,6.37
2018-05-09T15:46:43.583Z,5.93
2018-05-09T15:49:10.514Z,4.93
2018-05-09T15:51:36.703Z,2.55
2018-05-09T15:54:02.926Z,5.55
2018-05-09T15:56:30.223Z,2.97
2018-05-09T15:58:56.390Z,2.03
2018-05-09T16:01:22.595Z,6.87
2018-05-09T16:03:48.950Z,11.65
2018-05-09T16:06:15.216Z,10.20
2018-05-09T16:08:41.463Z,6.60
2018-05-09T16:11:07.625Z,7.05
2018-05-09T16:13:34.962Z,7.00
2018-05-09T16:16:01.260Z,5.85
2018-05-09T16:18:27.663Z,7.45
2018-05-09T16:20:54.407Z,10.55
2018-05-09T16:23:22.361Z,13.02
2018-05-09T16:25:49.024Z,4.55
2018-05-09T16:28:16.066Z,5.80
2018-05-09T16:30:42.352Z,3.00
2018-05-09T16:33:08.933Z,4.40
2018-05-09T16:35:35.123Z,5.22
2018-05-09T16:38:01.464Z,5.80
2018-05-09T16:40:28.000Z,9.82
2018-05-09T16:42:55.563Z,8.52
2018-05-09T16:45:21.839Z,8.13
2018-05-09T16:47:48.039Z,4.47
2018-05-09T16:50:14.261Z,5.18
2018-05-09T16:52:41.555Z,3.08
2018-05-09T16:55:07.770Z,5.82
2018-05-09T16:57:35.209Z,7.55
2018-05-09T17:00:01.434Z,5.78
2018-05-09T17:02:27.626Z,5.10
2018-05-09T17:04:55.582Z,7.87
2018-05-09T17:07:25.442Z,9.95
2018-05-09T17:09:51.690Z,13.57
2018-05-09T17:12:17.850Z,8.65
2018-05-09T17:14:44.116Z,3.37
2018-05-09T17:17:10.306Z,5.32
2018-05-09T17:19:36.591Z,5.82
2018-05-09T17:22:21.393Z,5.80
2018-05-09T17:24:48.939Z,4.00
2018-05-09T17:27:16.934Z,2.58
2018-05-09T17:29:43.122Z,3.08
2018-05-09T17:32:11.175Z,8.27
2018-05-09T17:34:37.449Z,6.37
2018-05-09T17:37:03.922Z,2.75
2018-05-09T17:39:30.677Z,2.47
2018-05-09T17:41:57.164Z,6.07
2018-05-09T17:44:24.718Z,3.75
2018-05-09T17:46:50.977Z,5.70
2018-05-09T17:49:17.514Z,12.07
2018-05-09T17:51:44.007Z,4.22
2018-05-09T17:54:10.394Z,12.68
2018-05-09T17:56:36.604Z,15.35
2018-05-09T17:59:02.898Z,10.98
2018-05-09T18:01:31.895Z,3.03
2018-05-09T18:03:58.172Z,4.82
2018-05-09T18:06:24.482Z,3.22
2018-05-09T18:08:50.817Z,6.30
2018-05-09T18:11:17.070Z,27.62
2018-05-09T18:13:43.239Z,22.80
2018-05-09T18:16:10.562Z,16.83
2018-05-09T18:18:36.781Z,9.23
2018-05-09T18:21:03.019Z,14.93
2018-05-09T18:23:29.258Z,20.02
2018-05-09T18:25:55.500Z,9.95
2018-05-09T18:28:22.056Z,31.85
2018-05-09T18:30:48.802Z,17.98
2018-05-09T18:33:15.024Z,10.00
2018-05-09T18:35:42.338Z,4.85
2018-05-09T18:38:08.509Z,4.70
2018-05-09T18:40:34.706Z,7.82
2018-05-09T18:43:00.921Z,13.82
2018-05-09T18:45:28.222Z,8.43
2018-05-09T18:47:54.428Z,5.70
2018-05-09T18:50:21.809Z,7.30
2018-05-09T18:52:48.022Z,24.20
2018-05-09T18:55:15.524Z,87.72
2018-05-09T18:57:41.724Z,76.55
2018-05-09T19:00:07.943Z,73.82
2018-05-09T19:02:34.140Z,42.53
2018-05-09T19:05:00.354Z,30.08
2018-05-09T19:07:26.542Z,22.80
2018-05-09T19:09:52.743Z,14.85
2018-05-09T19:12:20.064Z,23.20
2018-05-09T19:14:46.278Z,20.73
2018-05-09T19:17:12.480Z,19.45
2018-05-09T19:19:38.796Z,18.30
2018-05-09T19:22:05.007Z,14.07
2018-05-09T19:24:31.254Z,17.98
2018-05-09T19:26:57.439Z,16.08
2018-05-09T19:29:23.750Z,15.63
2018-05-09T19:31:49.969Z,15.25
2018-05-09T19:34:16.270Z,13.65
2018-05-09T19:36:42.466Z,9.75
2018-05-09T19:39:08.686Z,14.32
2018-05-09T19:41:34.953Z,14.77
2018-05-09T19:44:01.119Z,14.55
2018-05-09T19:46:27.312Z,8.57
2018-05-09T19:48:53.582Z,10.30
2018-05-09T19:51:19.755Z,11.55
2018-05-09T19:53:45.971Z,14.93
2018-05-09T19:56:12.177Z,5.60
2018-05-09T19:58:38.816Z,5.37
2018-05-09T20:01:05.825Z,9.50
2018-05-09T20:03:32.092Z,6.68
2018-05-09T20:05:58.405Z,12.55
2018-05-09T20:08:24.599Z,9.80
2018-05-09T20:10:52.322Z,5.05
2018-05-09T20:13:18.541Z,9.25
2018-05-09T20:15:44.718Z,11.82
2018-05-09T20:18:10.946Z,19.05
2018-05-09T20:20:37.130Z,9.27
2018-05-09T20:23:04.642Z,8.27
2018-05-09T20:25:30.899Z,7.62
2018-05-09T20:27:57.151Z,8.63
2018-05-09T20:30:29.403Z,9.90
2018-05-09T20:32:55.632Z,10.30
2018-05-09T20:35:21.831Z,16.30
2018-05-09T20:37:48.044Z,9.63
2018-05-09T20:40:14.216Z,13.98
2018-05-09T20:42:40.452Z,10.68
2018-05-09T20:45:06.656Z,14.57
2018-05-09T20:47:33.119Z,14.77
2018-05-09T20:49:59.351Z,9.88
2018-05-09T20:52:25.527Z,9.52
2018-05-09T20:54:51.769Z,11.57
2018-05-09T20:57:18.146Z,12.65
2018-05-09T20:59:44.446Z,19.83
2018-05-09T21:02:10.719Z,28.20
2018-05-09T21:04:38.159Z,18.75
2018-05-09T21:07:04.796Z,13.77
2018-05-09T21:09:31.021Z,22.42
2018-05-09T21:12:08.345Z,9.60
2018-05-09T21:14:34.484Z,18.15
2018-05-09T21:17:00.689Z,40.55
2018-05-09T21:19:26.841Z,54.95
2018-05-09T21:21:53.508Z,44.97
2018-05-09T21:24:20.848Z,41.25
2018-05-09T21:26:47.167Z,41.75
2018-05-09T21:29:14.691Z,26.98
2018-05-09T21:31:40.870Z,22.98
2018-05-09T21:34:07.063Z,22.25
2018-05-09T21:36:33.226Z,11.20
2018-05-09T21:38:59.415Z,13.52
2018-05-09T21:41:26.337Z,17.37
2018-05-09T21:43:53.227Z,9.70
2018-05-09T21:46:19.527Z,5.82
2018-05-09T21:48:45.712Z,9.88
2018-05-09T21:51:13.696Z,7.85
2018-05-09T21:53:41.059Z,12.48
2018-05-09T21:56:08.367Z,6.55
2018-05-09T21:58:34.624Z,7.15
2018-05-09T22:01:00.910Z,10.70
2018-05-09T22:03:28.216Z,11.75
2018-05-09T22:05:54.441Z,5.00
2018-05-09T22:08:20.675Z,5.55
2018-05-09T22:10:47.000Z,5.30
2018-05-09T22:13:13.189Z,6.05
2018-05-09T22:15:39.468Z,11.18
2018-05-09T22:18:07.351Z,5.22
2018-05-09T22:20:33.558Z,5.82
2018-05-09T22:22:59.774Z,5.43
2018-05-09T22:25:25.951Z,10.75
2018-05-09T22:27:52.179Z,6.55
2018-05-09T22:30:18.371Z,6.22
2018-05-09T22:32:45.661Z,5.57
2018-05-09T22:35:11.865Z,4.80
2018-05-09T22:37:39.140Z,5.75
2018-05-09T22:40:05.392Z,6.07
2018-05-09T22:42:31.562Z,7.62
2018-05-09T22:44:57.736Z,7.45
2018-05-09T22:47:24.031Z,7.53
2018-05-09T22:49:50.206Z,9.63
2018-05-09T22:52:16.400Z,7.78
2018-05-09T22:54:42.587Z,9.50
2018-05-09T22:57:08.758Z,8.30
2018-05-09T22:59:36.082Z,10.45
2018-05-09T23:02:02.298Z,6.93
2018-05-09T23:04:28.505Z,5.35
2018-05-09T23:06:55.816Z,6.65
2018-05-09T23:09:21.978Z,5.28
2018-05-09T23:11:48.271Z,6.75
2018-05-09T23:14:16.241Z,9.45
2018-05-09T23:16:43.530Z,6.53
2018-05-09T23:19:09.702Z,7.95
2018-05-09T23:21:35.866Z,5.62
2018-05-09T23:24:02.050Z,6.43
2018-05-09T23:26:28.942Z,7.72
2018-05-09T23:28:55.147Z,9.50
2018-05-09T23:31:22.239Z,4.07
2018-05-09T23:33:48.410Z,8.43
2018-05-09T23:36:14.615Z,6.12
2018-05-09T23:38:40.793Z,8.02
2018-05-09T23:41:06.994Z,9.38
2018-05-09T23:43:33.170Z,4.57
2018-05-09T23:45:59.340Z,9.30
2018-05-09T23:48:26.705Z,8.68
2018-05-09T23:50:52.854Z,5.65
2018-05-09T23:53:19.040Z,4.35
2018-05-09T23:55:45.367Z,4.53
2018-05-09T23:58:12.525Z,9.75
